sensor_id;sensor_type;location;lat;lon;timestamp;temperature;humidity
13256;DHT22;37913;48.370;10.930;2022-11-20T00:01:12;4.60;99.90
13256;DHT22;37913;48.370;10.930;2022-11-20T00:03:40;4.60;99.90
13256;DHT22;37913;48.370;10.930;2022-11-20T00:06:08;4.60;99.90
13256;DHT22;37913;48.370;10.930;2022-11-20T00:08:35;4.50;99.90
13256;DHT22;37913;48.370;10.930;2022-11-20T00:11:03;4.50;99.90
13256;DHT22;37913;48.370;10.930;2022-11-20T00:13:31;4.50;99.90
13256;DHT22;37913;48.370;10.930;2022-11-20T00:15:58;4.50;99.90
13256;DHT22;37913;48.370;10.930;2022-11-20T00:18:27;4.50;99.90
13256;DHT22;37913;48.370;10.930;2022-11-20T00:21:00;4.50;99.90
13256;DHT22;37913;48.370;10.930;2022-11-20T00:23:28;4.50;99.90
13256;DHT22;37913;48.370;10.930;2022-11-20T00:28:22;4.50;99.90
13256;DHT22;37913;48.370;10.930;2022-11-20T00:30:49;4.80;99.90
13256;DHT22;37913;48.370;10.930;2022-11-20T00:33:16;4.40;99.90
13256;DHT22;37913;48.370;10.930;2022-11-20T00:35:44;4.40;99.90
13256;DHT22;37913;48.370;10.930;2022-11-20T00:38:11;4.40;99.90
13256;DHT22;37913;48.370;10.930;2022-11-20T00:40:38;4.40;99.90
13256;DHT22;37913;48.370;10.930;2022-11-20T00:43:05;4.40;99.90
13256;DHT22;37913;48.370;10.930;2022-11-20T00:45:32;4.40;99.90
13256;DHT22;37913;48.370;10.930;2022-11-20T00:47:59;4.50;99.90
13256;DHT22;37913;48.370;10.930;2022-11-20T00:50:25;4.30;99.90
13256;DHT22;37913;48.370;10.930;2022-11-20T00:52:54;4.30;99.90
13256;DHT22;37913;48.370;10.930;2022-11-20T00:55:20;4.30;99.90
13256;DHT22;37913;48.370;10.930;2022-11-20T00:57:47;4.30;99.90
13256;DHT22;37913;48.370;10.930;2022-11-20T01:00:15;4.80;99.90
13256;DHT22;37913;48.370;10.930;2022-11-20T01:02:42;4.30;99.90
13256;DHT22;37913;48.370;10.930;2022-11-20T01:05:09;4.30;99.90
13256;DHT22;37913;48.370;10.930;2022-11-20T01:07:35;4.30;99.90
13256;DHT22;37913;48.370;10.930;2022-11-20T01:10:05;4.30;99.90
13256;DHT22;37913;48.370;10.930;2022-11-20T01:12:32;4.30;99.90
13256;DHT22;37913;48.370;10.930;2022-11-20T01:14:59;4.30;99.90
13256;DHT22;37913;48.370;10.930;2022-11-20T01:17:25;4.50;99.90
13256;DHT22;37913;48.370;10.930;2022-11-20T01:19:52;5.10;99.90
13256;DHT22;37913;48.370;10.930;2022-11-20T01:22:19;4.50;99.90
13256;DHT22;37913;48.370;10.930;2022-11-20T01:24:46;4.40;99.90
13256;DHT22;37913;48.370;10.930;2022-11-20T01:27:14;4.40;99.90
13256;DHT22;37913;48.370;10.930;2022-11-20T01:29:41;4.60;99.90
13256;DHT22;37913;48.370;10.930;2022-11-20T01:32:08;4.90;99.90
13256;DHT22;37913;48.370;10.930;2022-11-20T01:34:35;4.50;99.90
13256;DHT22;37913;48.370;10.930;2022-11-20T01:37:02;4.50;99.90
13256;DHT22;37913;48.370;10.930;2022-11-20T01:39:29;4.40;99.90
13256;DHT22;37913;48.370;10.930;2022-11-20T01:41:56;4.40;99.90
13256;DHT22;37913;48.370;10.930;2022-11-20T01:44:50;4.40;99.90
13256;DHT22;37913;48.370;10.930;2022-11-20T01:47:21;4.40;99.90
13256;DHT22;37913;48.370;10.930;2022-11-20T01:49:52;4.20;99.90
13256;DHT22;37913;48.370;10.930;2022-11-20T01:52:22;4.30;99.90
13256;DHT22;37913;48.370;10.930;2022-11-20T01:54:56;4.20;99.90
13256;DHT22;37913;48.370;10.930;2022-11-20T01:57:26;4.20;99.90
13256;DHT22;37913;48.370;10.930;2022-11-20T01:59:59;4.20;99.90
13256;DHT22;37913;48.370;10.930;2022-11-20T02:02:27;4.20;99.90
13256;DHT22;37913;48.370;10.930;2022-11-20T02:04:57;4.20;99.90
13256;DHT22;37913;48.370;10.930;2022-11-20T02:07:25;5.20;99.90
13256;DHT22;37913;48.370;10.930;2022-11-20T02:09:53;4.20;99.90
13256;DHT22;37913;48.370;10.930;2022-11-20T02:12:20;4.60;99.90
13256;DHT22;37913;48.370;10.930;2022-11-20T02:15:07;4.10;99.90
13256;DHT22;37913;48.370;10.930;2022-11-20T02:17:34;4.20;99.90
13256;DHT22;37913;48.370;10.930;2022-11-20T02:20:01;4.10;99.90
13256;DHT22;37913;48.370;10.930;2022-11-20T02:22:31;4.70;99.90
13256;DHT22;37913;48.370;10.930;2022-11-20T02:25:02;4.30;99.90
13256;DHT22;37913;48.370;10.930;2022-11-20T02:27:30;4.20;99.90
13256;DHT22;37913;48.370;10.930;2022-11-20T02:29:59;4.10;99.90
13256;DHT22;37913;48.370;10.930;2022-11-20T02:32:29;4.10;99.90
13256;DHT22;37913;48.370;10.930;2022-11-20T02:34:56;4.80;99.90
13256;DHT22;37913;48.370;10.930;2022-11-20T02:37:23;4.50;99.90
13256;DHT22;37913;48.370;10.930;2022-11-20T02:39:53;4.10;99.90
13256;DHT22;37913;48.370;10.930;2022-11-20T02:42:21;4.20;99.90
13256;DHT22;37913;48.370;10.930;2022-11-20T02:44:48;4.10;99.90
13256;DHT22;37913;48.370;10.930;2022-11-20T02:47:15;3.90;99.90
13256;DHT22;37913;48.370;10.930;2022-11-20T02:49:42;5.70;99.90
13256;DHT22;37913;48.370;10.930;2022-11-20T02:52:09;4.00;99.90
13256;DHT22;37913;48.370;10.930;2022-11-20T02:54:36;4.00;99.90
13256;DHT22;37913;48.370;10.930;2022-11-20T02:57:03;4.70;99.90
13256;DHT22;37913;48.370;10.930;2022-11-20T02:59:31;4.30;99.90
13256;DHT22;37913;48.370;10.930;2022-11-20T03:01:59;4.30;99.90
13256;DHT22;37913;48.370;10.930;2022-11-20T03:04:26;4.20;99.90
13256;DHT22;37913;48.370;10.930;2022-11-20T03:06:53;4.40;99.90
13256;DHT22;37913;48.370;10.930;2022-11-20T03:09:20;4.40;99.90
13256;DHT22;37913;48.370;10.930;2022-11-20T03:11:47;4.90;99.90
13256;DHT22;37913;48.370;10.930;2022-11-20T03:14:14;4.40;99.90
13256;DHT22;37913;48.370;10.930;2022-11-20T03:16:43;4.40;99.90
13256;DHT22;37913;48.370;10.930;2022-11-20T03:19:11;4.40;99.90
13256;DHT22;37913;48.370;10.930;2022-11-20T03:21:39;4.40;99.90
13256;DHT22;37913;48.370;10.930;2022-11-20T03:24:06;4.40;99.90
13256;DHT22;37913;48.370;10.930;2022-11-20T03:26:33;4.40;99.90
13256;DHT22;37913;48.370;10.930;2022-11-20T03:29:01;4.50;99.90
13256;DHT22;37913;48.370;10.930;2022-11-20T03:31:30;4.50;99.90
13256;DHT22;37913;48.370;10.930;2022-11-20T03:33:59;4.40;99.90
13256;DHT22;37913;48.370;10.930;2022-11-20T03:36:27;4.50;99.90
13256;DHT22;37913;48.370;10.930;2022-11-20T03:38:57;4.50;99.90
13256;DHT22;37913;48.370;10.930;2022-11-20T03:41:26;4.40;99.90
13256;DHT22;37913;48.370;10.930;2022-11-20T03:43:54;4.40;99.90
13256;DHT22;37913;48.370;10.930;2022-11-20T03:46:22;4.50;99.90
13256;DHT22;37913;48.370;10.930;2022-11-20T03:48:49;4.40;99.90
13256;DHT22;37913;48.370;10.930;2022-11-20T03:51:19;4.50;99.90
13256;DHT22;37913;48.370;10.930;2022-11-20T03:53:48;4.40;99.90
13256;DHT22;37913;48.370;10.930;2022-11-20T03:56:17;4.40;99.90
13256;DHT22;37913;48.370;10.930;2022-11-20T03:58:45;4.60;99.90
13256;DHT22;37913;48.370;10.930;2022-11-20T04:01:13;5.00;99.90
13256;DHT22;37913;48.370;10.930;2022-11-20T04:03:41;4.40;99.90
13256;DHT22;37913;48.370;10.930;2022-11-20T04:06:10;4.40;99.90
13256;DHT22;37913;48.370;10.930;2022-11-20T04:08:39;4.60;99.90
13256;DHT22;37913;48.370;10.930;2022-11-20T04:11:11;4.70;99.90
13256;DHT22;37913;48.370;10.930;2022-11-20T04:13:38;5.10;99.90
13256;DHT22;37913;48.370;10.930;2022-11-20T04:16:06;4.60;99.90
13256;DHT22;37913;48.370;10.930;2022-11-20T04:18:33;4.60;99.90
13256;DHT22;37913;48.370;10.930;2022-11-20T04:21:01;5.30;99.90
13256;DHT22;37913;48.370;10.930;2022-11-20T04:23:28;4.60;99.90
13256;DHT22;37913;48.370;10.930;2022-11-20T04:26:01;4.60;99.90
13256;DHT22;37913;48.370;10.930;2022-11-20T04:28:28;4.70;99.90
13256;DHT22;37913;48.370;10.930;2022-11-20T04:31:01;4.90;99.90
13256;DHT22;37913;48.370;10.930;2022-11-20T04:33:29;4.60;99.90
13256;DHT22;37913;48.370;10.930;2022-11-20T04:36:01;4.60;99.90
13256;DHT22;37913;48.370;10.930;2022-11-20T04:38:28;4.60;99.90
13256;DHT22;37913;48.370;10.930;2022-11-20T04:41:01;4.60;99.90
13256;DHT22;37913;48.370;10.930;2022-11-20T04:43:28;6.10;99.90
13256;DHT22;37913;48.370;10.930;2022-11-20T04:45:56;5.00;99.90
13256;DHT22;37913;48.370;10.930;2022-11-20T04:48:24;4.70;99.90
13256;DHT22;37913;48.370;10.930;2022-11-20T04:50:51;4.80;99.90
13256;DHT22;37913;48.370;10.930;2022-11-20T04:53:19;4.70;99.90
13256;DHT22;37913;48.370;10.930;2022-11-20T04:55:46;4.70;99.90
13256;DHT22;37913;48.370;10.930;2022-11-20T04:58:16;4.70;99.90
13256;DHT22;37913;48.370;10.930;2022-11-20T05:00:43;4.90;99.90
13256;DHT22;37913;48.370;10.930;2022-11-20T05:03:10;4.70;99.90
13256;DHT22;37913;48.370;10.930;2022-11-20T05:05:36;4.50;99.90
13256;DHT22;37913;48.370;10.930;2022-11-20T05:08:04;4.40;99.90
13256;DHT22;37913;48.370;10.930;2022-11-20T05:10:30;4.30;99.90
13256;DHT22;37913;48.370;10.930;2022-11-20T05:12:57;4.30;99.90
13256;DHT22;37913;48.370;10.930;2022-11-20T05:15:26;4.30;99.90
13256;DHT22;37913;48.370;10.930;2022-11-20T05:17:53;4.80;99.90
13256;DHT22;37913;48.370;10.930;2022-11-20T05:20:20;4.50;99.90
13256;DHT22;37913;48.370;10.930;2022-11-20T05:22:47;4.80;99.90
13256;DHT22;37913;48.370;10.930;2022-11-20T05:25:14;4.50;99.90
13256;DHT22;37913;48.370;10.930;2022-11-20T05:27:40;4.50;99.90
13256;DHT22;37913;48.370;10.930;2022-11-20T05:30:09;4.50;99.90
13256;DHT22;37913;48.370;10.930;2022-11-20T05:32:37;4.50;99.90
13256;DHT22;37913;48.370;10.930;2022-11-20T05:35:05;4.50;99.90
13256;DHT22;37913;48.370;10.930;2022-11-20T05:37:32;4.60;99.90
13256;DHT22;37913;48.370;10.930;2022-11-20T05:39:59;4.60;99.90
13256;DHT22;37913;48.370;10.930;2022-11-20T05:42:26;4.50;99.90
13256;DHT22;37913;48.370;10.930;2022-11-20T05:44:59;4.60;99.90
13256;DHT22;37913;48.370;10.930;2022-11-20T05:47:26;4.60;99.90
13256;DHT22;37913;48.370;10.930;2022-11-20T05:49:55;4.90;99.90
13256;DHT22;37913;48.370;10.930;2022-11-20T05:52:22;4.50;99.90
13256;DHT22;37913;48.370;10.930;2022-11-20T05:54:49;4.50;99.90
13256;DHT22;37913;48.370;10.930;2022-11-20T05:57:16;4.80;99.90
13256;DHT22;37913;48.370;10.930;2022-11-20T05:59:43;4.60;99.90
13256;DHT22;37913;48.370;10.930;2022-11-20T06:02:10;5.00;99.90
13256;DHT22;37913;48.370;10.930;2022-11-20T06:04:37;4.80;99.90
13256;DHT22;37913;48.370;10.930;2022-11-20T06:07:06;4.70;99.90
13256;DHT22;37913;48.370;10.930;2022-11-20T06:09:33;4.60;99.90
13256;DHT22;37913;48.370;10.930;2022-11-20T06:12:00;4.70;99.90
13256;DHT22;37913;48.370;10.930;2022-11-20T06:14:27;4.60;99.90
13256;DHT22;37913;48.370;10.930;2022-11-20T06:16:54;4.60;99.90
13256;DHT22;37913;48.370;10.930;2022-11-20T06:19:21;4.90;99.90
13256;DHT22;37913;48.370;10.930;2022-11-20T06:21:48;4.60;99.90
13256;DHT22;37913;48.370;10.930;2022-11-20T06:24:16;4.70;99.90
13256;DHT22;37913;48.370;10.930;2022-11-20T06:26:44;4.70;99.90
13256;DHT22;37913;48.370;10.930;2022-11-20T06:29:11;4.70;99.90
13256;DHT22;37913;48.370;10.930;2022-11-20T06:31:38;4.70;99.90
13256;DHT22;37913;48.370;10.930;2022-11-20T06:34:05;4.70;96.00
13256;DHT22;37913;48.370;10.930;2022-11-20T06:36:32;4.70;85.10
13256;DHT22;37913;48.370;10.930;2022-11-20T06:39:00;4.70;99.90
13256;DHT22;37913;48.370;10.930;2022-11-20T06:41:28;5.10;62.70
13256;DHT22;37913;48.370;10.930;2022-11-20T06:43:55;4.70;87.50
13256;DHT22;37913;48.370;10.930;2022-11-20T06:46:22;4.80;44.00
13256;DHT22;37913;48.370;10.930;2022-11-20T06:48:50;4.80;41.10
13256;DHT22;37913;48.370;10.930;2022-11-20T06:51:17;4.70;84.60
13256;DHT22;37913;48.370;10.930;2022-11-20T06:53:44;4.70;47.40
13256;DHT22;37913;48.370;10.930;2022-11-20T06:56:11;5.60;19.20
13256;DHT22;37913;48.370;10.930;2022-11-20T06:58:40;4.90;19.10
13256;DHT22;37913;48.370;10.930;2022-11-20T07:01:09;4.80;23.00
13256;DHT22;37913;48.370;10.930;2022-11-20T07:03:36;4.90;1.00
13256;DHT22;37913;48.370;10.930;2022-11-20T07:06:04;6.90;1.00
13256;DHT22;37913;48.370;10.930;2022-11-20T07:08:32;4.80;1.00
13256;DHT22;37913;48.370;10.930;2022-11-20T07:10:59;4.90;1.00
13256;DHT22;37913;48.370;10.930;2022-11-20T07:13:27;4.90;1.00
13256;DHT22;37913;48.370;10.930;2022-11-20T07:15:58;5.10;1.00
13256;DHT22;37913;48.370;10.930;2022-11-20T07:18:25;5.00;1.00
13256;DHT22;37913;48.370;10.930;2022-11-20T07:20:53;5.30;1.00
13256;DHT22;37913;48.370;10.930;2022-11-20T07:23:20;5.20;1.00
13256;DHT22;37913;48.370;10.930;2022-11-20T07:25:47;5.30;1.00
13256;DHT22;37913;48.370;10.930;2022-11-20T07:28:14;5.30;1.00
13256;DHT22;37913;48.370;10.930;2022-11-20T07:30:41;5.30;1.00
13256;DHT22;37913;48.370;10.930;2022-11-20T07:33:09;5.50;1.00
13256;DHT22;37913;48.370;10.930;2022-11-20T07:35:36;5.30;1.00
13256;DHT22;37913;48.370;10.930;2022-11-20T07:38:03;5.30;1.00
13256;DHT22;37913;48.370;10.930;2022-11-20T07:40:29;5.30;1.00
13256;DHT22;37913;48.370;10.930;2022-11-20T07:42:56;5.40;1.00
13256;DHT22;37913;48.370;10.930;2022-11-20T07:45:24;5.40;1.00
13256;DHT22;37913;48.370;10.930;2022-11-20T07:47:51;5.40;1.00
13256;DHT22;37913;48.370;10.930;2022-11-20T07:50:20;5.40;1.00
13256;DHT22;37913;48.370;10.930;2022-11-20T07:52:46;5.50;1.00
13256;DHT22;37913;48.370;10.930;2022-11-20T07:55:14;5.60;1.00
13256;DHT22;37913;48.370;10.930;2022-11-20T07:57:41;5.80;1.00
13256;DHT22;37913;48.370;10.930;2022-11-20T08:00:10;5.90;99.90
13256;DHT22;37913;48.370;10.930;2022-11-20T08:02:37;5.90;99.90
13256;DHT22;37913;48.370;10.930;2022-11-20T08:05:06;5.80;99.90
13256;DHT22;37913;48.370;10.930;2022-11-20T08:07:37;5.50;99.90
13256;DHT22;37913;48.370;10.930;2022-11-20T08:10:05;5.80;99.90
13256;DHT22;37913;48.370;10.930;2022-11-20T08:12:32;6.00;99.90
13256;DHT22;37913;48.370;10.930;2022-11-20T08:15:16;6.00;1.00
13256;DHT22;37913;48.370;10.930;2022-11-20T08:17:43;6.10;1.00
13256;DHT22;37913;48.370;10.930;2022-11-20T08:20:10;6.10;1.00
13256;DHT22;37913;48.370;10.930;2022-11-20T08:22:39;6.20;99.90
13256;DHT22;37913;48.370;10.930;2022-11-20T08:25:06;6.30;1.00
13256;DHT22;37913;48.370;10.930;2022-11-20T08:27:33;6.60;1.00
13256;DHT22;37913;48.370;10.930;2022-11-20T08:30:01;6.70;99.90
13256;DHT22;37913;48.370;10.930;2022-11-20T08:32:30;6.60;1.00
13256;DHT22;37913;48.370;10.930;2022-11-20T08:34:56;6.70;22.80
13256;DHT22;37913;48.370;10.930;2022-11-20T08:37:23;6.50;99.90
13256;DHT22;37913;48.370;10.930;2022-11-20T08:39:53;6.40;99.90
13256;DHT22;37913;48.370;10.930;2022-11-20T08:42:22;6.50;92.60
13256;DHT22;37913;48.370;10.930;2022-11-20T08:44:49;6.50;1.00
13256;DHT22;37913;48.370;10.930;2022-11-20T08:47:16;6.60;1.00
13256;DHT22;37913;48.370;10.930;2022-11-20T08:49:43;6.40;99.90
13256;DHT22;37913;48.370;10.930;2022-11-20T08:52:10;6.60;99.90
13256;DHT22;37913;48.370;10.930;2022-11-20T08:54:36;6.60;1.00
13256;DHT22;37913;48.370;10.930;2022-11-20T08:57:05;6.50;99.90
13256;DHT22;37913;48.370;10.930;2022-11-20T08:59:32;6.60;1.00
13256;DHT22;37913;48.370;10.930;2022-11-20T09:01:59;6.70;1.00
13256;DHT22;37913;48.370;10.930;2022-11-20T09:04:25;6.70;1.00
13256;DHT22;37913;48.370;10.930;2022-11-20T09:06:52;6.70;1.00
13256;DHT22;37913;48.370;10.930;2022-11-20T09:09:19;6.80;1.00
13256;DHT22;37913;48.370;10.930;2022-11-20T09:11:46;6.90;1.00
13256;DHT22;37913;48.370;10.930;2022-11-20T09:14:16;7.00;1.00
13256;DHT22;37913;48.370;10.930;2022-11-20T09:16:44;7.20;99.90
13256;DHT22;37913;48.370;10.930;2022-11-20T09:19:11;7.30;99.90
13256;DHT22;37913;48.370;10.930;2022-11-20T09:21:38;7.30;1.00
13256;DHT22;37913;48.370;10.930;2022-11-20T09:24:06;7.30;1.00
13256;DHT22;37913;48.370;10.930;2022-11-20T09:26:33;7.20;74.50
13256;DHT22;37913;48.370;10.930;2022-11-20T09:28:59;7.20;99.90
13256;DHT22;37913;48.370;10.930;2022-11-20T09:31:28;7.20;1.00
13256;DHT22;37913;48.370;10.930;2022-11-20T09:33:55;7.00;99.90
13256;DHT22;37913;48.370;10.930;2022-11-20T09:36:22;7.00;99.90
13256;DHT22;37913;48.370;10.930;2022-11-20T09:38:49;7.40;1.00
13256;DHT22;37913;48.370;10.930;2022-11-20T09:41:35;8.00;99.90
13256;DHT22;37913;48.370;10.930;2022-11-20T09:44:13;8.70;1.00
13256;DHT22;37913;48.370;10.930;2022-11-20T09:46:50;9.40;1.00
13256;DHT22;37913;48.370;10.930;2022-11-20T09:49:25;9.60;99.90
13256;DHT22;37913;48.370;10.930;2022-11-20T09:51:57;9.80;99.90
13256;DHT22;37913;48.370;10.930;2022-11-20T09:54:29;9.80;99.90
13256;DHT22;37913;48.370;10.930;2022-11-20T09:57:00;10.40;99.90
13256;DHT22;37913;48.370;10.930;2022-11-20T09:59:36;9.90;1.00
13256;DHT22;37913;48.370;10.930;2022-11-20T10:02:27;8.80;99.90
13256;DHT22;37913;48.370;10.930;2022-11-20T10:04:58;8.70;1.00
13256;DHT22;37913;48.370;10.930;2022-11-20T10:07:30;8.10;1.00
13256;DHT22;37913;48.370;10.930;2022-11-20T10:09:59;7.60;99.90
13256;DHT22;37913;48.370;10.930;2022-11-20T10:12:34;7.30;7.40
13256;DHT22;37913;48.370;10.930;2022-11-20T10:15:14;7.30;99.90
13256;DHT22;37913;48.370;10.930;2022-11-20T10:17:58;7.20;1.00
13256;DHT22;37913;48.370;10.930;2022-11-20T10:20:29;7.20;1.00
13256;DHT22;37913;48.370;10.930;2022-11-20T10:23:23;7.50;73.60
13256;DHT22;37913;48.370;10.930;2022-11-20T10:26:00;7.80;1.00
13256;DHT22;37913;48.370;10.930;2022-11-20T10:28:43;7.90;99.90
13256;DHT22;37913;48.370;10.930;2022-11-20T10:31:22;7.90;99.90
13256;DHT22;37913;48.370;10.930;2022-11-20T10:33:54;7.90;1.00
13256;DHT22;37913;48.370;10.930;2022-11-20T10:36:26;8.00;97.40
13256;DHT22;37913;48.370;10.930;2022-11-20T10:38:57;7.90;1.00
13256;DHT22;37913;48.370;10.930;2022-11-20T10:41:27;7.60;1.00
13256;DHT22;37913;48.370;10.930;2022-11-20T10:44:02;7.90;1.00
13256;DHT22;37913;48.370;10.930;2022-11-20T10:46:37;7.70;99.90
13256;DHT22;37913;48.370;10.930;2022-11-20T10:49:14;7.70;1.00
13256;DHT22;37913;48.370;10.930;2022-11-20T10:51:51;7.90;28.50
13256;DHT22;37913;48.370;10.930;2022-11-20T10:54:29;8.30;1.00
13256;DHT22;37913;48.370;10.930;2022-11-20T10:57:03;8.20;1.00
13256;DHT22;37913;48.370;10.930;2022-11-20T10:59:58;8.00;1.00
13256;DHT22;37913;48.370;10.930;2022-11-20T11:02:34;7.90;1.00
13256;DHT22;37913;48.370;10.930;2022-11-20T11:05:11;7.70;1.00
13256;DHT22;37913;48.370;10.930;2022-11-20T11:07:41;7.50;1.00
13256;DHT22;37913;48.370;10.930;2022-11-20T11:10:16;7.50;31.20
13256;DHT22;37913;48.370;10.930;2022-11-20T11:12:45;7.40;1.00
13256;DHT22;37913;48.370;10.930;2022-11-20T11:15:23;7.50;1.00
13256;DHT22;37913;48.370;10.930;2022-11-20T11:17:51;7.30;1.00
13256;DHT22;37913;48.370;10.930;2022-11-20T11:20:21;6.60;1.00
13256;DHT22;37913;48.370;10.930;2022-11-20T11:22:50;5.90;99.90
13256;DHT22;37913;48.370;10.930;2022-11-20T11:25:29;6.30;1.00
13256;DHT22;37913;48.370;10.930;2022-11-20T11:28:01;7.00;1.00
13256;DHT22;37913;48.370;10.930;2022-11-20T11:30:30;7.40;1.00
13256;DHT22;37913;48.370;10.930;2022-11-20T11:33:10;7.40;1.00
13256;DHT22;37913;48.370;10.930;2022-11-20T11:35:45;7.50;1.00
13256;DHT22;37913;48.370;10.930;2022-11-20T11:38:15;7.70;99.90
13256;DHT22;37913;48.370;10.930;2022-11-20T11:40:43;8.00;1.00
13256;DHT22;37913;48.370;10.930;2022-11-20T11:43:18;8.10;99.90
13256;DHT22;37913;48.370;10.930;2022-11-20T11:46:09;8.30;1.00
13256;DHT22;37913;48.370;10.930;2022-11-20T11:48:55;8.30;1.00
13256;DHT22;37913;48.370;10.930;2022-11-20T11:51:26;8.20;30.80
13256;DHT22;37913;48.370;10.930;2022-11-20T11:53:58;8.00;50.30
13256;DHT22;37913;48.370;10.930;2022-11-20T11:56:25;7.80;1.00
13256;DHT22;37913;48.370;10.930;2022-11-20T11:58:55;7.70;20.50
13256;DHT22;37913;48.370;10.930;2022-11-20T12:01:29;7.60;90.90
13256;DHT22;37913;48.370;10.930;2022-11-20T12:04:04;7.60;17.60
13256;DHT22;37913;48.370;10.930;2022-11-20T12:06:34;7.40;12.10
13256;DHT22;37913;48.370;10.930;2022-11-20T12:09:04;7.10;1.00
13256;DHT22;37913;48.370;10.930;2022-11-20T12:11:37;7.00;99.90
13256;DHT22;37913;48.370;10.930;2022-11-20T12:14:11;6.90;1.00
13256;DHT22;37913;48.370;10.930;2022-11-20T12:16:40;6.60;1.00
13256;DHT22;37913;48.370;10.930;2022-11-20T12:19:10;6.50;1.00
13256;DHT22;37913;48.370;10.930;2022-11-20T12:21:47;6.40;1.00
13256;DHT22;37913;48.370;10.930;2022-11-20T12:24:32;6.40;1.00
13256;DHT22;37913;48.370;10.930;2022-11-20T12:27:17;6.60;1.00
13256;DHT22;37913;48.370;10.930;2022-11-20T12:29:55;6.70;1.00
13256;DHT22;37913;48.370;10.930;2022-11-20T12:32:47;6.70;1.00
13256;DHT22;37913;48.370;10.930;2022-11-20T12:35:31;6.60;1.00
13256;DHT22;37913;48.370;10.930;2022-11-20T12:38:26;6.80;1.00
13256;DHT22;37913;48.370;10.930;2022-11-20T12:41:02;7.00;1.00
13256;DHT22;37913;48.370;10.930;2022-11-20T12:43:37;6.90;1.00
13256;DHT22;37913;48.370;10.930;2022-11-20T12:46:30;7.00;1.00
13256;DHT22;37913;48.370;10.930;2022-11-20T12:49:17;7.10;99.90
13256;DHT22;37913;48.370;10.930;2022-11-20T12:51:57;6.90;99.90
13256;DHT22;37913;48.370;10.930;2022-11-20T12:54:49;6.90;1.00
13256;DHT22;37913;48.370;10.930;2022-11-20T12:57:25;6.80;1.00
13256;DHT22;37913;48.370;10.930;2022-11-20T13:00:07;6.70;31.70
13256;DHT22;37913;48.370;10.930;2022-11-20T13:02:44;6.70;99.90
13256;DHT22;37913;48.370;10.930;2022-11-20T13:05:24;6.80;1.00
13256;DHT22;37913;48.370;10.930;2022-11-20T13:07:53;6.90;1.00
13256;DHT22;37913;48.370;10.930;2022-11-20T13:10:31;7.00;56.00
13256;DHT22;37913;48.370;10.930;2022-11-20T13:13:04;6.80;99.90
13256;DHT22;37913;48.370;10.930;2022-11-20T13:15:42;7.40;1.00
13256;DHT22;37913;48.370;10.930;2022-11-20T13:18:11;6.00;1.00
13256;DHT22;37913;48.370;10.930;2022-11-20T13:20:43;6.90;1.00
13256;DHT22;37913;48.370;10.930;2022-11-20T13:23:10;6.90;99.90
13256;DHT22;37913;48.370;10.930;2022-11-20T13:25:39;6.90;49.80
13256;DHT22;37913;48.370;10.930;2022-11-20T13:28:26;6.50;99.90
13256;DHT22;37913;48.370;10.930;2022-11-20T13:30:56;6.60;1.00
13256;DHT22;37913;48.370;10.930;2022-11-20T13:33:28;6.80;1.00
13256;DHT22;37913;48.370;10.930;2022-11-20T13:35:58;6.60;99.90
13256;DHT22;37913;48.370;10.930;2022-11-20T13:38:25;6.60;99.90
13256;DHT22;37913;48.370;10.930;2022-11-20T13:40:55;6.60;99.90
13256;DHT22;37913;48.370;10.930;2022-11-20T13:43:28;6.60;99.90
13256;DHT22;37913;48.370;10.930;2022-11-20T13:46:01;6.50;1.00
13256;DHT22;37913;48.370;10.930;2022-11-20T13:48:32;6.60;1.00
13256;DHT22;37913;48.370;10.930;2022-11-20T13:51:23;6.60;1.00
13256;DHT22;37913;48.370;10.930;2022-11-20T13:54:17;6.50;1.00
13256;DHT22;37913;48.370;10.930;2022-11-20T13:56:58;6.60;1.00
13256;DHT22;37913;48.370;10.930;2022-11-20T13:59:51;6.60;1.00
13256;DHT22;37913;48.370;10.930;2022-11-20T14:02:21;6.60;1.00
13256;DHT22;37913;48.370;10.930;2022-11-20T14:04:52;6.60;1.00
13256;DHT22;37913;48.370;10.930;2022-11-20T14:07:24;6.60;1.00
13256;DHT22;37913;48.370;10.930;2022-11-20T14:09:53;7.00;1.00
13256;DHT22;37913;48.370;10.930;2022-11-20T14:12:26;6.50;1.00
13256;DHT22;37913;48.370;10.930;2022-11-20T14:14:56;6.60;1.00
13256;DHT22;37913;48.370;10.930;2022-11-20T14:17:30;6.70;1.00
13256;DHT22;37913;48.370;10.930;2022-11-20T14:20:00;6.70;1.00
13256;DHT22;37913;48.370;10.930;2022-11-20T14:22:28;6.70;99.90
13256;DHT22;37913;48.370;10.930;2022-11-20T14:25:05;6.80;1.00
13256;DHT22;37913;48.370;10.930;2022-11-20T14:27:36;6.70;1.00
13256;DHT22;37913;48.370;10.930;2022-11-20T14:30:06;4.30;1.00
13256;DHT22;37913;48.370;10.930;2022-11-20T14:32:39;6.70;99.90
13256;DHT22;37913;48.370;10.930;2022-11-20T14:35:13;6.50;1.00
13256;DHT22;37913;48.370;10.930;2022-11-20T14:37:44;6.40;1.00
13256;DHT22;37913;48.370;10.930;2022-11-20T14:40:29;6.40;1.00
13256;DHT22;37913;48.370;10.930;2022-11-20T14:42:58;6.40;1.00
13256;DHT22;37913;48.370;10.930;2022-11-20T14:45:26;6.40;1.00
13256;DHT22;37913;48.370;10.930;2022-11-20T14:47:55;5.40;1.00
13256;DHT22;37913;48.370;10.930;2022-11-20T14:50:26;6.30;1.00
13256;DHT22;37913;48.370;10.930;2022-11-20T14:52:56;6.50;1.00
13256;DHT22;37913;48.370;10.930;2022-11-20T14:55:29;6.40;99.90
13256;DHT22;37913;48.370;10.930;2022-11-20T14:58:02;6.40;99.90
13256;DHT22;37913;48.370;10.930;2022-11-20T15:00:32;6.40;99.90
13256;DHT22;37913;48.370;10.930;2022-11-20T15:02:59;6.40;99.90
13256;DHT22;37913;48.370;10.930;2022-11-20T15:05:44;6.40;99.90
13256;DHT22;37913;48.370;10.930;2022-11-20T15:08:16;6.30;99.90
13256;DHT22;37913;48.370;10.930;2022-11-20T15:10:47;6.20;1.00
13256;DHT22;37913;48.370;10.930;2022-11-20T15:13:23;6.10;1.00
13256;DHT22;37913;48.370;10.930;2022-11-20T15:15:53;6.20;1.00
13256;DHT22;37913;48.370;10.930;2022-11-20T15:18:23;6.10;1.00
13256;DHT22;37913;48.370;10.930;2022-11-20T15:20:55;7.10;1.00
13256;DHT22;37913;48.370;10.930;2022-11-20T15:23:23;6.20;1.00
13256;DHT22;37913;48.370;10.930;2022-11-20T15:25:50;6.10;1.00
13256;DHT22;37913;48.370;10.930;2022-11-20T15:28:21;6.00;1.00
13256;DHT22;37913;48.370;10.930;2022-11-20T15:30:50;5.90;1.00
13256;DHT22;37913;48.370;10.930;2022-11-20T15:33:17;5.80;1.00
13256;DHT22;37913;48.370;10.930;2022-11-20T15:35:45;5.80;1.00
13256;DHT22;37913;48.370;10.930;2022-11-20T15:38:12;5.80;1.00
13256;DHT22;37913;48.370;10.930;2022-11-20T15:40:39;5.80;1.00
13256;DHT22;37913;48.370;10.930;2022-11-20T15:43:06;5.80;1.00
13256;DHT22;37913;48.370;10.930;2022-11-20T15:45:38;5.80;1.00
13256;DHT22;37913;48.370;10.930;2022-11-20T15:48:09;5.70;1.00
13256;DHT22;37913;48.370;10.930;2022-11-20T15:50:52;5.70;1.00
13256;DHT22;37913;48.370;10.930;2022-11-20T15:53:21;5.80;1.00
13256;DHT22;37913;48.370;10.930;2022-11-20T15:55:48;5.90;1.00
13256;DHT22;37913;48.370;10.930;2022-11-20T15:58:15;6.00;1.00
13256;DHT22;37913;48.370;10.930;2022-11-20T16:00:46;6.70;1.00